PILOTS ONLINE: 273    ATC ONLINE: 21

NFFN

Nadi International Airport

Location

IATA NAN
City Nadi
Country  Fiji
Latitude 17° 45' 19" S
Longitude 177° 26' 34" E
Elevation 59 ft
Type Medium Airport

Map

Weather

METAR
2014/10/24 10:00
NFFN 241000Z 13005KT 9999 FEW028 SCT300 26/22 Q1013 NOSIG
TAF
2014/10/24 12:57
TAF NFFN 240947Z 2412/2512 13005KT 9999 FEW028 SCT050 
      BECMG 2421/2423 29012KT PROB30 
      TEMPO 2500/2506 5000 SHRA BKN015 
      BECMG 2504/2506 13005KT

Runways

02/20 10739 ft / 150 ft
09/27 7007 ft / 150 ft

Outbound flights

Callsign Flying to Pilot ATD/STD ETA Aircraft
QTR53G  NCRG - Avarua
Cook Islands
Abdulrhman Qassem
1260649
09:05 16:00 MD11

Inbound flights

Callsign Flying from Pilot ATD ETA Aircraft
VTK609  UNNT - Novosibirsk
Russian Federation
Rostislav Korolev
1196561
09:54 09:54 B77W